ADDS METAR Data INFO
IDs: Format: Raw Decoded Include TAF

Data at: 0512 UTC 22 Jul 2017

KHOU 220453Z 19005KT 10SM FEW020 BKN250 28/24 A2997 RMK AO2 SLP152 T02830239
KHOU 220353Z 20004KT 10SM FEW020 BKN250 29/24 A2998 RMK AO2 SLP154 T02890239
KHOU 220253Z 20006KT 10SM FEW025 SCT180 BKN250 29/24 A2996 RMK AO2 SLP148 T02940239 53003
KHOU 220153Z 19007KT 10SM FEW040 SCT090 SCT250 30/24 A2996 RMK AO2 SLP148 T03000239
KHOU 220053Z 16007KT 10SM FEW045 SCT090 BKN250 31/24 A2994 RMK AO2 LTG DSNT NW SLP142 T03060244
KHOU 212353Z 16012KT 10SM FEW045 BKN250 31/23 A2995 RMK AO2 SLP145 T03110233 10361 20311 56005
KHOU 212253Z 16011KT 10SM SCT048 BKN250 31/23 A2995 RMK AO2 LTG DSNT N AND NE SLP145 CB DSNT N NE T03110233
KHOU 212153Z 14011KT 10SM SCT050CB BKN250 34/24 A2995 RMK AO2 LTG DSNT N AND NE SLP146 CB DSNT N T03390239
KHOU 212053Z VRB04KT 10SM SCT050CB BKN250 35/22 A2996 RMK AO2 SLP150 CB VCSH NE MOV W T03500222 57019
KHOU 211953Z 18006KT 10SM SCT060TCU SCT250 36/22 A2998 RMK AO2 SLP156 TCU VCSH SE T03560217
KHOU 211853Z 00000KT 10SM SCT050 SCT250 35/22 A3000 RMK AO2 SLP163 T03500222
KHOU 211753Z 00000KT 10SM FEW045 SCT250 34/22 A3002 RMK AO2 SLP169 T03440222 10344 20267 58010
KHOU 211653Z 00000KT 10SM SCT040 SCT250 34/22 A3004 RMK AO2 SLP174 CB DSNT SE T03390222
KHOU 211553Z VRB04KT 10SM SCT030 SCT250 33/23 A3005 RMK AO2 SLP178 T03280233
KHOU 211453Z 25006KT 10SM SCT022 SCT250 32/24 A3005 RMK AO2 SLP180 T03170244 50010
KHOU 211353Z 24005KT 10SM FEW020 SCT250 31/24 A3006 RMK AO2 SLP181 T03060244
KHOU 211253Z 00000KT 10SM FEW020 FEW250 29/24 A3004 RMK AO2 SLP177 T02890239
KHOU 211153Z 00000KT 10SM FEW020 SCT250 27/23 A3002 RMK AO2 SLP170 T02670233 10283 20261 53007
KHOU 211053Z COR 06003KT 10SM FEW020 FEW250 27/23 A3001 RMK AO2 SLP166 T02670233
KHOU 210953Z 00000KT 10SM CLR 26/23 A3000 RMK AO2 SLP162 T02610233
KHOU 210853Z 00000KT 10SM CLR 27/23 A3000 RMK AO2 SLP163 T02670233 56009
KHOU 210753Z 00000KT 10SM FEW250 27/23 A3001 RMK AO2 SLP166 T02720228
KHOU 210653Z 23003KT 10SM FEW250 28/23 A3002 RMK AO2 SLP168 T02780233
KHOU 210553Z 24003KT 10SM FEW250 28/23 A3003 RMK AO2 SLP172 T02830228 10322 20278 403670267 51002
KHOU 210453Z 20003KT 10SM FEW250 28/23 A3003 RMK AO2 SLP172 T02830228
KHOU 210353Z 20004KT 10SM FEW250 28/23 A3002 RMK AO2 SLP171 T02830228
KHOU 210253Z 17005KT 10SM SCT250 29/23 A3002 RMK AO2 SLP170 T02940228 53007
KHOU 210153Z COR 18007KT 10SM FEW050 SCT100 SCT250 31/23 A3000 RMK AO2 SLP163 T03060233
KHOU 210053Z 18006KT 10SM FEW055 SCT250 31/24 A3000 RMK AO2 LTG DSNT NW SLP163 CB DSNT NW T03110239
KHOU 202353Z 17009KT 10SM FEW060 SCT250 32/24 A3000 RMK AO2 LTG DSNT SW AND W SLP163 CB DSNT SW W T03220239 10367 20322 55010
KHOU 202253Z 15007KT 10SM SCT060 SCT250 34/23 A2999 RMK AO2 SLP161 CB DSNT SW T03390233
KHOU 202153Z 13007KT 10SM SCT055 BKN250 35/24 A3001 RMK AO2 SLP166 CB DSNT SW T03500239
KHOU 202053Z 12008KT 10SM BKN055 BKN070 BKN250 34/24 A3003 RMK AO2 SLP172 T03390239 58020
KHOU 201953Z 18005KT 10SM SCT050 SCT250 36/22 A3005 RMK AO2 SLP180 T03560222
KHOU 201853Z 00000KT 10SM SCT050 SCT250 35/22 A3007 RMK AO2 SLP187 T03500217
KHOU 201753Z 24005KT 10SM SCT045 SCT250 34/22 A3009 RMK AO2 SLP192 T03440217 10350 20267 58013